This is the latest recevied weather packets stored in our database for station/object MM0ZFG-5. If no packets are shown the sender has not sent any weather packets the latest 10 day(s).
| Time | Temp. | Humidity | Pressure | Rain* | Wind** | Luminosity | Snow |
|---|---|---|---|---|---|---|---|
| 1777824004 | 13.33° C | 70% | 1009.7 hPa | 0 mm | - | - | - |
| 1777821484 | 15° C | 69% | 1009.8 hPa | 0 mm | - | - | - |
| 1777819503 | 12.78° C | 76% | 1009.9 hPa | 0 mm | - | - | - |
| 1777809624 | 9.44° C | 82% | 1010.8 hPa | 0 mm | - | - | - |
| 1777805644 | 8.89° C | 83% | 1011.1 hPa | 0 mm | - | - | - |
| 1777804585 | 8.89° C | 84% | 1010.9 hPa | 0 mm | - | - | - |
| 1777802044 | 8.33° C | 85% | 1010.8 hPa | 0 mm | - | - | - |
| 1777800424 | 8.33° C | 87% | 1010.7 hPa | 0 mm | - | - | - |
| 1777799344 | 8.33° C | 88% | 1010.8 hPa | 0 mm | - | - | - |
| 1777798444 | 8.33° C | 88% | 1010.7 hPa | 0 mm | - | - | - |
| 1777794844 | 8.33° C | 89% | 1010.5 hPa | 0 mm | - | - | - |
| 1777793765 | 8.33° C | 89% | 1010.3 hPa | 0 mm | - | - | - |
| 1777788544 | 7.78° C | 91% | 1009.9 hPa | 0 mm | - | - | - |
| 1777787103 | 7.78° C | 92% | 1009.9 hPa | 0 mm | - | - | - |
| 1777786563 | 7.78° C | 92% | 1009.9 hPa | 0 mm | - | - | - |
| 1777784944 | 7.78° C | 92% | 1009.8 hPa | 0 mm | - | - | - |
| 1777784404 | 7.78° C | 92% | 1009.7 hPa | 0.25 mm | - | - | - |
| 1777782425 | 7.78° C | 92% | 1010 hPa | 0.25 mm | - | - | - |
| 1777781366 | 7.78° C | 92% | 1009.8 hPa | 0.51 mm | - | - | - |
| 1777779903 | 8.33° C | 93% | 1010 hPa | 0.25 mm | - | - | - |
| 1777775764 | 8.33° C | 92% | 1009.8 hPa | 0.51 mm | - | - | - |
| 1777774684 | 8.33° C | 92% | 1010 hPa | 0.25 mm | - | - | - |
| 1777774145 | 8.89° C | 91% | 1010 hPa | 0.25 mm | - | - | - |
| 1777773625 | 8.89° C | 91% | 1010.1 hPa | 0.25 mm | - | - | - |
| 1777769644 | 8.89° C | 91% | 1009.9 hPa | 0.51 mm | - | - | - |
* Rain latest hour (hover to see other rain measurements)
** Current wind speed in m/s (hover to see current wind gust speed)